sensor_id;sensor_type;location;lat;lon;timestamp;P1;P2;P0
14880;PMS7003;7533;51.278;12.588;2022-08-16T00:04:56;9.50;9.25;6.50
14880;PMS7003;7533;51.278;12.588;2022-08-16T00:10:00;13.50;10.25;6.50
14880;PMS7003;7533;51.278;12.588;2022-08-16T00:15:07;11.50;9.50;5.50
14880;PMS7003;7533;51.278;12.588;2022-08-16T00:20:17;12.00;10.75;6.50
14880;PMS7003;7533;51.278;12.588;2022-08-16T00:25:24;14.00;11.00;6.50
14880;PMS7003;7533;51.278;12.588;2022-08-16T00:30:49;12.75;11.50;7.25
14880;PMS7003;7533;51.278;12.588;2022-08-16T00:35:53;12.75;12.00;7.00
14880;PMS7003;7533;51.278;12.588;2022-08-16T00:40:56;12.75;10.75;6.75
14880;PMS7003;7533;51.278;12.588;2022-08-16T00:46:05;13.25;12.00;8.50
14880;PMS7003;7533;51.278;12.588;2022-08-16T00:51:32;11.75;11.75;6.50
14880;PMS7003;7533;51.278;12.588;2022-08-16T00:56:40;15.00;12.00;8.00
14880;PMS7003;7533;51.278;12.588;2022-08-16T01:02:01;11.50;10.50;7.00
14880;PMS7003;7533;51.278;12.588;2022-08-16T01:07:27;16.50;13.00;7.00
14880;PMS7003;7533;51.278;12.588;2022-08-16T01:12:50;13.50;12.50;8.50
14880;PMS7003;7533;51.278;12.588;2022-08-16T01:17:55;17.00;16.00;9.00
14880;PMS7003;7533;51.278;12.588;2022-08-16T01:23:02;17.25;14.75;9.00
14880;PMS7003;7533;51.278;12.588;2022-08-16T01:28:12;18.00;17.00;9.75
14880;PMS7003;7533;51.278;12.588;2022-08-16T01:33:21;17.25;15.50;9.25
14880;PMS7003;7533;51.278;12.588;2022-08-16T01:38:34;20.50;16.75;10.50
14880;PMS7003;7533;51.278;12.588;2022-08-16T01:43:43;18.00;17.00;10.50
14880;PMS7003;7533;51.278;12.588;2022-08-16T01:48:56;20.80;20.60;12.00
14880;PMS7003;7533;51.278;12.588;2022-08-16T01:54:01;18.25;15.25;10.25
14880;PMS7003;7533;51.278;12.588;2022-08-16T01:59:10;16.50;15.00;9.50
14880;PMS7003;7533;51.278;12.588;2022-08-16T02:04:16;19.80;18.00;11.00
14880;PMS7003;7533;51.278;12.588;2022-08-16T02:09:39;17.00;16.75;10.00
14880;PMS7003;7533;51.278;12.588;2022-08-16T02:14:59;14.00;12.25;7.75
14880;PMS7003;7533;51.278;12.588;2022-08-16T02:20:05;16.00;13.50;8.25
14880;PMS7003;7533;51.278;12.588;2022-08-16T02:25:13;16.40;14.80;9.20
14880;PMS7003;7533;51.278;12.588;2022-08-16T02:30:20;17.20;15.80;9.40
14880;PMS7003;7533;51.278;12.588;2022-08-16T02:35:43;15.00;14.00;10.00
14880;PMS7003;7533;51.278;12.588;2022-08-16T02:41:00;14.50;13.75;9.00
14880;PMS7003;7533;51.278;12.588;2022-08-16T02:46:13;16.25;14.75;10.00
14880;PMS7003;7533;51.278;12.588;2022-08-16T02:51:17;14.20;14.20;10.00
14880;PMS7003;7533;51.278;12.588;2022-08-16T02:56:24;19.25;14.00;9.25
14880;PMS7003;7533;51.278;12.588;2022-08-16T03:01:34;16.40;14.80;10.40
14880;PMS7003;7533;51.278;12.588;2022-08-16T03:06:45;17.40;16.00;10.20
14880;PMS7003;7533;51.278;12.588;2022-08-16T03:11:54;18.80;17.40;11.40
14880;PMS7003;7533;51.278;12.588;2022-08-16T03:16:59;13.40;12.60;9.00
14880;PMS7003;7533;51.278;12.588;2022-08-16T03:22:07;18.00;15.40;9.00
14880;PMS7003;7533;51.278;12.588;2022-08-16T03:27:12;17.00;14.20;11.00
14880;PMS7003;7533;51.278;12.588;2022-08-16T03:32:16;20.80;17.80;12.00
14880;PMS7003;7533;51.278;12.588;2022-08-16T03:37:20;18.80;18.40;11.20
14880;PMS7003;7533;51.278;12.588;2022-08-16T03:42:23;22.60;20.80;13.80
14880;PMS7003;7533;51.278;12.588;2022-08-16T03:47:32;27.00;24.20;16.40
14880;PMS7003;7533;51.278;12.588;2022-08-16T03:52:37;28.60;25.60;14.60
14880;PMS7003;7533;51.278;12.588;2022-08-16T03:57:45;26.60;23.00;16.20
14880;PMS7003;7533;51.278;12.588;2022-08-16T04:02:56;24.60;23.40;16.20
14880;PMS7003;7533;51.278;12.588;2022-08-16T04:08:06;25.40;21.40;15.80
14880;PMS7003;7533;51.278;12.588;2022-08-16T04:13:26;26.40;23.40;15.40
14880;PMS7003;7533;51.278;12.588;2022-08-16T04:18:54;25.80;25.60;16.20
14880;PMS7003;7533;51.278;12.588;2022-08-16T04:24:04;25.60;23.60;14.00
14880;PMS7003;7533;51.278;12.588;2022-08-16T04:29:08;20.80;20.80;14.00
14880;PMS7003;7533;51.278;12.588;2022-08-16T04:34:31;37.20;30.80;20.80
14880;PMS7003;7533;51.278;12.588;2022-08-16T04:39:35;33.20;31.00;22.60
14880;PMS7003;7533;51.278;12.588;2022-08-16T04:44:57;24.20;22.60;15.40
14880;PMS7003;7533;51.278;12.588;2022-08-16T04:50:08;28.80;23.80;14.80
14880;PMS7003;7533;51.278;12.588;2022-08-16T04:55:30;30.80;28.80;18.20
14880;PMS7003;7533;51.278;12.588;2022-08-16T05:00:39;32.80;29.80;19.80
14880;PMS7003;7533;51.278;12.588;2022-08-16T05:05:47;25.80;23.40;16.20
14880;PMS7003;7533;51.278;12.588;2022-08-16T05:11:06;21.00;19.80;13.00
14880;PMS7003;7533;51.278;12.588;2022-08-16T05:16:12;19.40;17.20;12.80
14880;PMS7003;7533;51.278;12.588;2022-08-16T05:21:27;22.40;20.20;13.00
14880;PMS7003;7533;51.278;12.588;2022-08-16T05:26:39;23.20;19.00;12.80
14880;PMS7003;7533;51.278;12.588;2022-08-16T05:31:52;20.60;18.60;12.60
14880;PMS7003;7533;51.278;12.588;2022-08-16T05:36:57;18.80;17.80;11.00
14880;PMS7003;7533;51.278;12.588;2022-08-16T05:42:08;16.40;16.40;11.00
14880;PMS7003;7533;51.278;12.588;2022-08-16T05:47:13;21.80;19.80;14.00
14880;PMS7003;7533;51.278;12.588;2022-08-16T05:52:22;45.60;36.00;24.00
14880;PMS7003;7533;51.278;12.588;2022-08-16T05:57:28;24.60;24.40;16.80
14880;PMS7003;7533;51.278;12.588;2022-08-16T06:02:36;17.60;16.20;12.00
14880;PMS7003;7533;51.278;12.588;2022-08-16T06:07:47;19.00;16.25;11.00
14880;PMS7003;7533;51.278;12.588;2022-08-16T06:13:06;17.25;17.25;10.75
14880;PMS7003;7533;51.278;12.588;2022-08-16T06:18:11;18.40;14.60;11.00
14880;PMS7003;7533;51.278;12.588;2022-08-16T06:23:16;17.20;15.80;9.80
14880;PMS7003;7533;51.278;12.588;2022-08-16T06:28:32;14.00;13.75;10.00
14880;PMS7003;7533;51.278;12.588;2022-08-16T06:33:39;21.00;17.00;12.00
14880;PMS7003;7533;51.278;12.588;2022-08-16T06:38:49;20.00;18.00;11.50
14880;PMS7003;7533;51.278;12.588;2022-08-16T06:44:26;21.00;18.20;13.00
14880;PMS7003;7533;51.278;12.588;2022-08-16T06:49:34;19.75;16.50;11.00
14880;PMS7003;7533;51.278;12.588;2022-08-16T06:54:38;17.25;16.00;11.00
14880;PMS7003;7533;51.278;12.588;2022-08-16T06:59:47;28.60;26.60;18.00
14880;PMS7003;7533;51.278;12.588;2022-08-16T07:05:05;21.50;18.25;10.25
14880;PMS7003;7533;51.278;12.588;2022-08-16T07:10:21;17.00;15.50;9.25
14880;PMS7003;7533;51.278;12.588;2022-08-16T07:15:28;17.00;15.50;9.75
14880;PMS7003;7533;51.278;12.588;2022-08-16T07:20:33;15.25;14.50;10.00
14880;PMS7003;7533;51.278;12.588;2022-08-16T07:25:50;22.25;17.75;11.25
14880;PMS7003;7533;51.278;12.588;2022-08-16T07:30:55;20.00;18.20;12.60
14880;PMS7003;7533;51.278;12.588;2022-08-16T07:36:07;15.00;15.00;9.50
14880;PMS7003;7533;51.278;12.588;2022-08-16T07:41:17;21.00;17.75;9.50
14880;PMS7003;7533;51.278;12.588;2022-08-16T07:46:25;17.00;15.25;9.00
14880;PMS7003;7533;51.278;12.588;2022-08-16T07:51:47;14.25;13.25;10.00
14880;PMS7003;7533;51.278;12.588;2022-08-16T07:56:58;17.25;15.25;9.75
14880;PMS7003;7533;51.278;12.588;2022-08-16T08:02:02;15.75;13.50;8.75
14880;PMS7003;7533;51.278;12.588;2022-08-16T08:07:12;18.00;16.00;11.75
14880;PMS7003;7533;51.278;12.588;2022-08-16T08:12:18;13.75;13.25;9.50
14880;PMS7003;7533;51.278;12.588;2022-08-16T08:17:38;13.75;12.25;8.25
14880;PMS7003;7533;51.278;12.588;2022-08-16T08:22:53;21.25;16.50;10.75
14880;PMS7003;7533;51.278;12.588;2022-08-16T08:28:05;19.50;16.50;9.25
14880;PMS7003;7533;51.278;12.588;2022-08-16T08:33:14;15.75;14.50;9.00
14880;PMS7003;7533;51.278;12.588;2022-08-16T08:38:17;17.50;16.00;10.00
14880;PMS7003;7533;51.278;12.588;2022-08-16T08:43:43;16.50;14.00;10.00
14880;PMS7003;7533;51.278;12.588;2022-08-16T08:48:48;16.00;14.50;10.00
14880;PMS7003;7533;51.278;12.588;2022-08-16T08:54:03;18.50;16.00;10.75
14880;PMS7003;7533;51.278;12.588;2022-08-16T08:59:13;16.00;15.00;9.00
14880;PMS7003;7533;51.278;12.588;2022-08-16T09:04:21;17.25;14.75;8.75
14880;PMS7003;7533;51.278;12.588;2022-08-16T09:09:25;15.25;13.75;10.00
14880;PMS7003;7533;51.278;12.588;2022-08-16T09:14:36;18.25;15.00;10.00
14880;PMS7003;7533;51.278;12.588;2022-08-16T09:19:52;15.00;15.00;9.75
14880;PMS7003;7533;51.278;12.588;2022-08-16T09:25:00;15.50;14.25;8.75
14880;PMS7003;7533;51.278;12.588;2022-08-16T09:30:14;15.75;14.00;9.75
14880;PMS7003;7533;51.278;12.588;2022-08-16T09:35:38;15.00;15.00;8.75
14880;PMS7003;7533;51.278;12.588;2022-08-16T09:40:44;14.25;13.00;9.00
14880;PMS7003;7533;51.278;12.588;2022-08-16T09:45:49;16.25;14.50;9.75
14880;PMS7003;7533;51.278;12.588;2022-08-16T09:50:54;12.75;11.75;8.75
14880;PMS7003;7533;51.278;12.588;2022-08-16T09:55:57;13.50;12.25;8.25
14880;PMS7003;7533;51.278;12.588;2022-08-16T10:01:04;12.75;11.75;7.50
14880;PMS7003;7533;51.278;12.588;2022-08-16T10:06:09;16.25;13.00;8.00
14880;PMS7003;7533;51.278;12.588;2022-08-16T10:11:12;11.75;10.75;8.00
14880;PMS7003;7533;51.278;12.588;2022-08-16T10:16:51;12.00;10.50;7.75
14880;PMS7003;7533;51.278;12.588;2022-08-16T10:22:02;14.25;11.50;7.00
14880;PMS7003;7533;51.278;12.588;2022-08-16T10:27:06;10.25;10.00;7.25
14880;PMS7003;7533;51.278;12.588;2022-08-16T10:32:29;12.50;12.50;8.75
14880;PMS7003;7533;51.278;12.588;2022-08-16T10:37:32;10.75;9.75;7.75
14880;PMS7003;7533;51.278;12.588;2022-08-16T10:42:36;15.00;11.25;7.25
14880;PMS7003;7533;51.278;12.588;2022-08-16T10:47:42;11.50;11.00;8.00
14880;PMS7003;7533;51.278;12.588;2022-08-16T10:52:45;11.75;11.25;7.00
14880;PMS7003;7533;51.278;12.588;2022-08-16T10:57:53;11.00;11.00;8.50
14880;PMS7003;7533;51.278;12.588;2022-08-16T11:02:58;10.00;10.00;7.50
14880;PMS7003;7533;51.278;12.588;2022-08-16T11:08:05;10.25;9.50;7.50
14880;PMS7003;7533;51.278;12.588;2022-08-16T11:13:17;11.75;10.00;7.00
14880;PMS7003;7533;51.278;12.588;2022-08-16T11:18:44;12.00;11.50;7.50
14880;PMS7003;7533;51.278;12.588;2022-08-16T11:24:05;13.00;12.00;8.00
14880;PMS7003;7533;51.278;12.588;2022-08-16T11:29:28;10.75;10.00;7.75
14880;PMS7003;7533;51.278;12.588;2022-08-16T11:34:32;11.00;11.00;8.25
14880;PMS7003;7533;51.278;12.588;2022-08-16T11:39:55;14.00;11.00;7.25
14880;PMS7003;7533;51.278;12.588;2022-08-16T11:45:00;10.75;10.50;6.50
14880;PMS7003;7533;51.278;12.588;2022-08-16T11:50:06;9.50;8.25;7.00
14880;PMS7003;7533;51.278;12.588;2022-08-16T11:55:10;12.00;9.75;7.00
14880;PMS7003;7533;51.278;12.588;2022-08-16T12:00:15;8.25;8.25;5.75
14880;PMS7003;7533;51.278;12.588;2022-08-16T12:05:40;12.00;10.50;7.25
14880;PMS7003;7533;51.278;12.588;2022-08-16T12:10:45;12.50;10.00;5.25
14880;PMS7003;7533;51.278;12.588;2022-08-16T12:15:48;9.75;9.75;7.00
14880;PMS7003;7533;51.278;12.588;2022-08-16T12:20:53;9.75;8.75;6.00
14880;PMS7003;7533;51.278;12.588;2022-08-16T12:26:00;12.25;12.25;7.75
14880;PMS7003;7533;51.278;12.588;2022-08-16T12:31:11;11.00;9.75;6.50
14880;PMS7003;7533;51.278;12.588;2022-08-16T12:36:15;11.25;10.50;6.25
14880;PMS7003;7533;51.278;12.588;2022-08-16T12:41:18;11.00;10.50;7.50
14880;PMS7003;7533;51.278;12.588;2022-08-16T12:46:25;10.00;9.00;6.50
14880;PMS7003;7533;51.278;12.588;2022-08-16T12:51:30;11.25;11.00;6.50
14880;PMS7003;7533;51.278;12.588;2022-08-16T12:56:54;11.00;9.25;7.00
14880;PMS7003;7533;51.278;12.588;2022-08-16T13:01:58;9.75;9.00;6.50
14880;PMS7003;7533;51.278;12.588;2022-08-16T13:07:02;8.50;8.00;6.00
14880;PMS7003;7533;51.278;12.588;2022-08-16T13:12:09;10.25;9.75;6.25
14880;PMS7003;7533;51.278;12.588;2022-08-16T13:17:22;10.50;9.50;7.00
14880;PMS7003;7533;51.278;12.588;2022-08-16T13:22:31;9.25;8.00;6.00
14880;PMS7003;7533;51.278;12.588;2022-08-16T13:27:34;11.00;9.00;6.00
14880;PMS7003;7533;51.278;12.588;2022-08-16T13:32:57;10.75;9.75;7.00
14880;PMS7003;7533;51.278;12.588;2022-08-16T13:38:02;9.00;8.00;6.00
14880;PMS7003;7533;51.278;12.588;2022-08-16T13:43:06;11.00;10.00;6.25
14880;PMS7003;7533;51.278;12.588;2022-08-16T13:48:11;10.00;7.50;5.50
14880;PMS7003;7533;51.278;12.588;2022-08-16T13:53:27;9.00;9.00;5.75
14880;PMS7003;7533;51.278;12.588;2022-08-16T13:58:30;10.50;9.75;7.00
14880;PMS7003;7533;51.278;12.588;2022-08-16T14:03:50;11.00;10.00;6.00
14880;PMS7003;7533;51.278;12.588;2022-08-16T14:08:57;11.25;9.00;6.00
14880;PMS7003;7533;51.278;12.588;2022-08-16T14:14:07;10.00;7.25;5.25
14880;PMS7003;7533;51.278;12.588;2022-08-16T14:19:12;10.00;9.75;6.25
14880;PMS7003;7533;51.278;12.588;2022-08-16T14:24:24;9.00;8.00;5.75
14880;PMS7003;7533;51.278;12.588;2022-08-16T14:29:30;8.25;8.25;5.25
14880;PMS7003;7533;51.278;12.588;2022-08-16T14:34:38;9.25;8.00;6.00
14880;PMS7003;7533;51.278;12.588;2022-08-16T14:39:43;7.75;7.25;5.00
14880;PMS7003;7533;51.278;12.588;2022-08-16T14:44:49;8.50;8.50;5.75
14880;PMS7003;7533;51.278;12.588;2022-08-16T14:49:54;11.25;9.00;5.00
14880;PMS7003;7533;51.278;12.588;2022-08-16T14:54:58;7.50;7.50;5.50
14880;PMS7003;7533;51.278;12.588;2022-08-16T15:00:02;8.00;7.00;5.00
14880;PMS7003;7533;51.278;12.588;2022-08-16T15:05:08;9.25;8.00;5.00
14880;PMS7003;7533;51.278;12.588;2022-08-16T15:10:16;9.75;7.00;4.00
14880;PMS7003;7533;51.278;12.588;2022-08-16T15:15:26;8.00;8.00;4.50
14880;PMS7003;7533;51.278;12.588;2022-08-16T15:20:31;7.25;7.25;6.00
14880;PMS7003;7533;51.278;12.588;2022-08-16T15:25:38;6.25;6.00;4.00
14880;PMS7003;7533;51.278;12.588;2022-08-16T15:30:42;9.00;8.25;4.00
14880;PMS7003;7533;51.278;12.588;2022-08-16T15:36:01;8.25;8.25;5.00
14880;PMS7003;7533;51.278;12.588;2022-08-16T15:41:09;9.25;8.50;5.50
14880;PMS7003;7533;51.278;12.588;2022-08-16T15:46:14;7.25;6.75;4.75
14880;PMS7003;7533;51.278;12.588;2022-08-16T15:51:45;5.25;5.25;4.00
14880;PMS7003;7533;51.278;12.588;2022-08-16T15:56:50;6.25;6.25;3.25
14880;PMS7003;7533;51.278;12.588;2022-08-16T16:01:56;6.75;6.75;4.00
14880;PMS7003;7533;51.278;12.588;2022-08-16T16:06:59;6.75;6.75;4.50
14880;PMS7003;7533;51.278;12.588;2022-08-16T16:12:06;6.75;5.50;4.25
14880;PMS7003;7533;51.278;12.588;2022-08-16T16:17:29;4.75;4.75;3.25
14880;PMS7003;7533;51.278;12.588;2022-08-16T16:22:32;7.25;6.00;4.25
14880;PMS7003;7533;51.278;12.588;2022-08-16T16:27:36;7.75;7.75;5.00
14880;PMS7003;7533;51.278;12.588;2022-08-16T16:32:39;6.50;6.50;3.75
14880;PMS7003;7533;51.278;12.588;2022-08-16T16:37:42;4.50;4.50;2.75
14880;PMS7003;7533;51.278;12.588;2022-08-16T16:42:46;8.25;5.50;4.50
14880;PMS7003;7533;51.278;12.588;2022-08-16T16:47:51;9.00;6.50;4.00
14880;PMS7003;7533;51.278;12.588;2022-08-16T16:52:55;6.25;6.00;3.25
14880;PMS7003;7533;51.278;12.588;2022-08-16T16:57:59;6.25;6.00;4.00
14880;PMS7003;7533;51.278;12.588;2022-08-16T17:03:35;4.75;4.75;3.00
14880;PMS7003;7533;51.278;12.588;2022-08-16T17:08:39;5.75;5.75;4.50
14880;PMS7003;7533;51.278;12.588;2022-08-16T17:13:45;5.75;5.25;3.75
14880;PMS7003;7533;51.278;12.588;2022-08-16T17:18:48;7.00;7.00;3.50
14880;PMS7003;7533;51.278;12.588;2022-08-16T17:24:12;6.75;6.00;4.00
14880;PMS7003;7533;51.278;12.588;2022-08-16T17:29:20;6.00;6.00;3.50
14880;PMS7003;7533;51.278;12.588;2022-08-16T17:34:31;6.50;5.25;3.75
14880;PMS7003;7533;51.278;12.588;2022-08-16T17:39:45;6.00;6.00;4.00
14880;PMS7003;7533;51.278;12.588;2022-08-16T17:45:02;6.00;5.50;3.50
14880;PMS7003;7533;51.278;12.588;2022-08-16T17:50:06;5.75;5.00;3.50
14880;PMS7003;7533;51.278;12.588;2022-08-16T17:55:12;6.00;5.00;3.25
14880;PMS7003;7533;51.278;12.588;2022-08-16T18:00:23;7.25;6.75;3.00
14880;PMS7003;7533;51.278;12.588;2022-08-16T18:05:28;3.50;3.50;2.00
14880;PMS7003;7533;51.278;12.588;2022-08-16T18:10:31;5.50;5.50;3.00
14880;PMS7003;7533;51.278;12.588;2022-08-16T18:15:38;5.00;4.50;3.25
14880;PMS7003;7533;51.278;12.588;2022-08-16T18:20:42;4.50;4.00;2.00
14880;PMS7003;7533;51.278;12.588;2022-08-16T18:26:03;5.25;4.75;3.00
14880;PMS7003;7533;51.278;12.588;2022-08-16T18:31:09;5.50;4.50;2.75
14880;PMS7003;7533;51.278;12.588;2022-08-16T18:36:12;4.00;4.00;2.75
14880;PMS7003;7533;51.278;12.588;2022-08-16T18:41:23;6.25;6.25;4.00
14880;PMS7003;7533;51.278;12.588;2022-08-16T18:46:28;6.00;6.00;3.00
14880;PMS7003;7533;51.278;12.588;2022-08-16T18:51:31;5.75;5.25;3.50
14880;PMS7003;7533;51.278;12.588;2022-08-16T18:56:34;7.00;6.25;4.00
14880;PMS7003;7533;51.278;12.588;2022-08-16T19:01:59;5.75;4.50;3.00
14880;PMS7003;7533;51.278;12.588;2022-08-16T19:07:05;4.50;4.50;2.50
14880;PMS7003;7533;51.278;12.588;2022-08-16T19:12:08;5.00;5.00;3.00
14880;PMS7003;7533;51.278;12.588;2022-08-16T19:17:17;6.25;5.00;2.25
14880;PMS7003;7533;51.278;12.588;2022-08-16T19:22:24;5.25;5.25;3.75
14880;PMS7003;7533;51.278;12.588;2022-08-16T19:27:48;5.50;5.50;3.25
14880;PMS7003;7533;51.278;12.588;2022-08-16T19:32:54;6.25;6.00;3.50
14880;PMS7003;7533;51.278;12.588;2022-08-16T19:37:56;9.25;9.00;6.25
14880;PMS7003;7533;51.278;12.588;2022-08-16T19:43:00;10.25;10.25;8.00
14880;PMS7003;7533;51.278;12.588;2022-08-16T19:48:08;11.00;11.00;7.75
14880;PMS7003;7533;51.278;12.588;2022-08-16T19:53:11;10.50;8.25;6.00
14880;PMS7003;7533;51.278;12.588;2022-08-16T19:58:19;9.50;8.50;6.00
14880;PMS7003;7533;51.278;12.588;2022-08-16T20:03:24;9.25;8.75;6.00
14880;PMS7003;7533;51.278;12.588;2022-08-16T20:08:27;8.75;7.75;5.75
14880;PMS7003;7533;51.278;12.588;2022-08-16T20:13:30;8.25;7.50;5.00
14880;PMS7003;7533;51.278;12.588;2022-08-16T20:18:35;11.00;9.50;6.00
14880;PMS7003;7533;51.278;12.588;2022-08-16T20:23:38;9.50;8.75;5.75
14880;PMS7003;7533;51.278;12.588;2022-08-16T20:28:41;9.75;9.75;6.25
14880;PMS7003;7533;51.278;12.588;2022-08-16T20:33:56;13.25;11.25;7.25
14880;PMS7003;7533;51.278;12.588;2022-08-16T20:38:59;15.00;10.50;7.25
14880;PMS7003;7533;51.278;12.588;2022-08-16T20:44:04;13.75;12.50;8.00
14880;PMS7003;7533;51.278;12.588;2022-08-16T20:49:11;14.60;13.00;8.80
14880;PMS7003;7533;51.278;12.588;2022-08-16T20:54:14;14.00;12.60;8.60
14880;PMS7003;7533;51.278;12.588;2022-08-16T20:59:17;19.60;16.20;11.40
14880;PMS7003;7533;51.278;12.588;2022-08-16T21:04:21;17.40;14.60;9.80
14880;PMS7003;7533;51.278;12.588;2022-08-16T21:09:27;20.40;17.20;10.80
14880;PMS7003;7533;51.278;12.588;2022-08-16T21:14:33;13.20;12.60;10.00
14880;PMS7003;7533;51.278;12.588;2022-08-16T21:19:38;18.40;17.00;10.80
14880;PMS7003;7533;51.278;12.588;2022-08-16T21:24:41;18.80;15.60;10.20
14880;PMS7003;7533;51.278;12.588;2022-08-16T21:29:46;14.20;13.00;8.80
14880;PMS7003;7533;51.278;12.588;2022-08-16T21:34:51;17.40;17.20;11.60
14880;PMS7003;7533;51.278;12.588;2022-08-16T21:39:54;16.60;14.40;9.20
14880;PMS7003;7533;51.278;12.588;2022-08-16T21:44:57;16.60;13.80;10.20
14880;PMS7003;7533;51.278;12.588;2022-08-16T21:50:01;13.60;13.40;10.60
14880;PMS7003;7533;51.278;12.588;2022-08-16T21:55:05;15.20;15.20;11.00
14880;PMS7003;7533;51.278;12.588;2022-08-16T22:00:09;16.00;15.00;10.80
14880;PMS7003;7533;51.278;12.588;2022-08-16T22:05:15;14.20;13.60;9.60
14880;PMS7003;7533;51.278;12.588;2022-08-16T22:10:18;14.20;12.80;8.40
14880;PMS7003;7533;51.278;12.588;2022-08-16T22:15:42;11.40;11.40;7.80
14880;PMS7003;7533;51.278;12.588;2022-08-16T22:20:47;15.00;13.20;10.00
14880;PMS7003;7533;51.278;12.588;2022-08-16T22:25:51;12.60;12.40;9.20
14880;PMS7003;7533;51.278;12.588;2022-08-16T22:30:55;15.00;12.00;9.00
14880;PMS7003;7533;51.278;12.588;2022-08-16T22:36:00;13.75;11.50;9.00
14880;PMS7003;7533;51.278;12.588;2022-08-16T22:41:05;11.25;11.25;9.25
14880;PMS7003;7533;51.278;12.588;2022-08-16T22:46:07;14.25;12.75;9.00
14880;PMS7003;7533;51.278;12.588;2022-08-16T22:51:11;12.00;11.00;7.75
14880;PMS7003;7533;51.278;12.588;2022-08-16T22:56:14;13.80;13.80;8.00
14880;PMS7003;7533;51.278;12.588;2022-08-16T23:01:19;13.20;13.20;8.80
14880;PMS7003;7533;51.278;12.588;2022-08-16T23:06:25;12.20;12.20;8.80
14880;PMS7003;7533;51.278;12.588;2022-08-16T23:11:28;11.75;11.00;7.50
14880;PMS7003;7533;51.278;12.588;2022-08-16T23:16:31;14.20;12.40;8.00
14880;PMS7003;7533;51.278;12.588;2022-08-16T23:21:37;12.50;12.00;8.75
14880;PMS7003;7533;51.278;12.588;2022-08-16T23:26:43;9.00;9.00;6.25
14880;PMS7003;7533;51.278;12.588;2022-08-16T23:31:49;13.40;12.00;9.00
14880;PMS7003;7533;51.278;12.588;2022-08-16T23:36:55;14.40;13.20;9.00
14880;PMS7003;7533;51.278;12.588;2022-08-16T23:41:58;14.80;12.20;8.00
14880;PMS7003;7533;51.278;12.588;2022-08-16T23:47:02;12.00;10.25;8.00
14880;PMS7003;7533;51.278;12.588;2022-08-16T23:52:07;11.50;11.50;9.00
14880;PMS7003;7533;51.278;12.588;2022-08-16T23:57:11;11.00;10.25;7.50
